Aviation Digital Data Service (ADDS)

Output produced by METARs form (0503 UTC 21 September 2017)
found at http://www.aviationweather.gov/adds/metars/
 
FYWE 210400Z 07007KT CAVOK 21/M01 Q1025
FYWH 210400Z 30003KT CAVOK 15/01 Q1025 NOSIG
TAF FYWH 210400Z 2106/2212 30003KT CAVOK 
     BECMG 2107/2109 02015KT 
     BECMG 2115/2117 33007KT 
     BECMG 2119/2121 27005KT 
     BECMG 2200/2202 06003KT
       
FYKT 210400Z AUTO 01005G16KT //// // ////// 24/M00 Q1017
TAF FYKT 210400Z 2106/2212 01005KT CAVOK 
     BECMG 2109/2111 34011G22KT 
     BECMG 2116/2118 22013KT 
     BECMG 2200/2202 21003KT
       
FYLZ 210400Z AUTO 31008KT //// // ////// 11/11 Q1014
FYML 210400Z AUTO 03002KT //// // ////// 23/M01 Q1020
FYRU 210400Z AUTO 09001KT //// // ////// 18/04 Q1022
FYWB 210400Z 04003KT 9999 OVC011 14/11 Q1015
TAF FYWB 210400Z 2106/2212 32004KT 9999 BKN011 
     BECMG 2108/2110 29008KT BKN020 
     BECMG 2112/2114 CAVOK 
     BECMG 2118/2120 9999 BKN013 
     TEMPO 2122/2203 06004KT 0800 FG OVC010 
     BECMG 2209/2211 24005KT 9999 NSW BKN015